createdAt,value
2023-01-26T00:00:59.944Z,102293.00
2023-01-26T00:03:31.131Z,102281.50
2023-01-26T00:06:06.432Z,102276.97
2023-01-26T00:08:39.524Z,102267.47
2023-01-26T00:11:10.850Z,102254.72
2023-01-26T00:13:43.463Z,102256.38
2023-01-26T00:16:15.224Z,102261.34
2023-01-26T00:18:46.108Z,102266.34
2023-01-26T00:21:19.114Z,102255.63
2023-01-26T00:23:50.223Z,102256.84
2023-01-26T00:26:22.029Z,102253.50
2023-01-26T00:28:54.721Z,102258.44
2023-01-26T00:31:26.967Z,102258.44
2023-01-26T00:33:58.126Z,102258.84
2023-01-26T00:36:28.552Z,102251.88
2023-01-26T00:38:59.243Z,102249.78
2023-01-26T00:41:41.325Z,102246.47
2023-01-26T00:44:13.777Z,102239.88
2023-01-26T00:46:43.623Z,102236.59
2023-01-26T00:49:13.391Z,102226.13
2023-01-26T00:51:43.155Z,102231.06
2023-01-26T00:54:13.104Z,102228.41
2023-01-26T00:56:43.064Z,102227.81
2023-01-26T00:59:15.741Z,102226.16
2023-01-26T01:01:45.472Z,102227.81
2023-01-26T01:04:15.207Z,102229.22
2023-01-26T01:06:45.219Z,102229.63
2023-01-26T01:09:15.758Z,102222.19
2023-01-26T01:11:45.920Z,102220.13
2023-01-26T01:14:18.953Z,102215.22
2023-01-26T01:16:49.071Z,102221.59
2023-01-26T01:19:23.024Z,102207.63
2023-01-26T01:21:52.884Z,102217.28
2023-01-26T01:24:23.039Z,102217.28
2023-01-26T01:26:52.912Z,102211.13
2023-01-26T01:29:25.284Z,102217.72
2023-01-26T01:31:55.299Z,102208.88
2023-01-26T01:34:25.196Z,102217.28
2023-01-26T01:36:55.111Z,102205.56
2023-01-26T01:39:24.803Z,102199.16
2023-01-26T01:41:54.515Z,102202.88
2023-01-26T01:44:28.962Z,102207.63
2023-01-26T01:47:01.240Z,102216.50
2023-01-26T01:49:34.839Z,102211.38
2023-01-26T01:52:13.817Z,102204.19
2023-01-26T01:54:48.975Z,102199.44
2023-01-26T01:57:28.663Z,102196.31
2023-01-26T02:00:07.008Z,102200.47
2023-01-26T02:02:37.482Z,102191.81
2023-01-26T02:05:16.772Z,102193.09
2023-01-26T02:07:47.017Z,102191.00
2023-01-26T02:10:22.959Z,102187.69
2023-01-26T02:13:00.815Z,102180.91
2023-01-26T02:15:33.617Z,102183.13
2023-01-26T02:18:06.387Z,102173.47
2023-01-26T02:20:44.426Z,102175.38
2023-01-26T02:23:26.382Z,102173.75
2023-01-26T02:26:08.582Z,102169.81
2023-01-26T02:28:38.344Z,102160.53
2023-01-26T02:31:09.113Z,102156.38
2023-01-26T02:33:41.305Z,102163.81
2023-01-26T02:36:19.565Z,102181.50
2023-01-26T02:38:58.803Z,102177.78
2023-01-26T02:41:43.875Z,102173.03
2023-01-26T02:44:15.666Z,102175.69
2023-01-26T02:46:45.722Z,102171.97
2023-01-26T02:49:27.786Z,102165.78
2023-01-26T02:51:57.591Z,102160.88
2023-01-26T02:54:54.322Z,102153.06
2023-01-26T02:57:27.406Z,102148.13
2023-01-26T02:59:59.985Z,102140.78
2023-01-26T03:02:30.178Z,102150.66
2023-01-26T03:05:00.175Z,102156.38
2023-01-26T03:07:29.975Z,102159.25
2023-01-26T03:10:00.073Z,102155.88
2023-01-26T03:12:32.513Z,102157.56
2023-01-26T03:15:14.711Z,102152.78
2023-01-26T03:17:44.596Z,102144.56
2023-01-26T03:20:27.466Z,102141.44
2023-01-26T03:23:09.376Z,102137.75
2023-01-26T03:25:52.655Z,102143.47
2023-01-26T03:28:25.281Z,102145.09
2023-01-26T03:30:57.229Z,102150.84
2023-01-26T03:33:27.291Z,102144.22
2023-01-26T03:35:58.107Z,102145.25
2023-01-26T03:38:27.981Z,102146.31
2023-01-26T03:41:13.426Z,102152.47
2023-01-26T03:43:58.161Z,102136.84
2023-01-26T03:46:40.361Z,102144.44
2023-01-26T03:49:25.536Z,102140.72
2023-01-26T03:52:07.644Z,102138.06
2023-01-26T03:54:49.800Z,102140.13
2023-01-26T03:57:19.496Z,102137.69
2023-01-26T03:59:51.859Z,102140.56
2023-01-26T04:02:34.347Z,102130.47
2023-01-26T04:05:16.799Z,102132.47
2023-01-26T04:07:59.144Z,102126.31
2023-01-26T04:10:29.966Z,102128.75
2023-01-26T04:13:12.163Z,102125.72
2023-01-26T04:15:57.110Z,102118.97
2023-01-26T04:18:39.243Z,102123.28
2023-01-26T04:21:22.182Z,102125.25
2023-01-26T04:23:51.976Z,102116.19
2023-01-26T04:26:21.700Z,102126.47
2023-01-26T04:28:51.412Z,102130.56
2023-01-26T04:31:23.994Z,102133.22
2023-01-26T04:33:54.001Z,102140.03
2023-01-26T04:36:23.777Z,102133.00
2023-01-26T04:38:53.473Z,102127.88
2023-01-26T04:41:23.467Z,102128.28
2023-01-26T04:43:53.207Z,102120.59
2023-01-26T04:46:25.835Z,102130.50
2023-01-26T04:48:55.801Z,102139.34
2023-01-26T04:51:26.177Z,102124.09
2023-01-26T04:53:55.947Z,102130.28
2023-01-26T04:56:28.092Z,102134.22
2023-01-26T04:58:58.471Z,102136.91
2023-01-26T05:01:31.578Z,102137.94
2023-01-26T05:04:03.122Z,102137.13
2023-01-26T05:06:33.126Z,102134.44
2023-01-26T05:09:02.984Z,102129.09
2023-01-26T05:11:32.795Z,102129.31
2023-01-26T05:14:02.861Z,102125.59
2023-01-26T05:16:35.216Z,102124.56
2023-01-26T05:19:05.159Z,102118.16
2023-01-26T05:21:34.932Z,102119.78
2023-01-26T05:24:04.850Z,102125.38
2023-01-26T05:26:34.734Z,102128.88
2023-01-26T05:29:04.416Z,102130.50
2023-01-26T05:31:36.812Z,102132.13
2023-01-26T05:34:06.604Z,102124.72
2023-01-26T05:36:36.284Z,102134.38
2023-01-26T05:39:06.158Z,102130.66
2023-01-26T05:41:35.866Z,102131.47
2023-01-26T05:44:05.550Z,102135.78
2023-01-26T05:46:37.857Z,102143.59
2023-01-26T05:49:07.561Z,102126.72
2023-01-26T05:51:37.300Z,102130.00
2023-01-26T05:54:07.685Z,102130.59
2023-01-26T05:56:37.504Z,102129.78
2023-01-26T05:59:07.257Z,102128.00
2023-01-26T06:01:39.929Z,102126.78
2023-01-26T06:04:09.978Z,102133.75
2023-01-26T06:06:39.743Z,102134.81
2023-01-26T06:09:09.522Z,102137.06
2023-01-26T06:11:39.442Z,102132.06
2023-01-26T06:14:09.165Z,102125.47
2023-01-26T06:16:41.775Z,102128.75
2023-01-26T06:19:13.698Z,102132.00
2023-01-26T06:21:43.671Z,102130.75
2023-01-26T06:24:13.596Z,102132.59
2023-01-26T06:26:43.652Z,102132.59
2023-01-26T06:29:13.913Z,102128.28
2023-01-26T06:31:46.443Z,102131.56
2023-01-26T06:34:16.205Z,102134.03
2023-01-26T06:36:46.030Z,102126.59
2023-01-26T06:39:17.126Z,102129.03
2023-01-26T06:41:47.315Z,102130.66
2023-01-26T06:44:16.999Z,102139.75
2023-01-26T06:46:49.410Z,102144.91
2023-01-26T06:49:19.519Z,102143.84
2023-01-26T06:51:55.948Z,102139.31
2023-01-26T06:54:28.431Z,102144.66
2023-01-26T06:56:58.090Z,102140.13
2023-01-26T06:59:28.003Z,102140.34
2023-01-26T07:02:00.341Z,102134.38
2023-01-26T07:04:30.165Z,102143.03
2023-01-26T07:07:00.189Z,102138.50
2023-01-26T07:09:30.809Z,102146.31
2023-01-26T07:12:00.803Z,102144.22
2023-01-26T07:14:30.654Z,102147.47
2023-01-26T07:17:03.057Z,102147.94
2023-01-26T07:19:34.031Z,102143.97
2023-01-26T07:22:03.983Z,102143.78
2023-01-26T07:24:33.913Z,102142.50
2023-01-26T07:27:03.678Z,102140.66
2023-01-26T07:29:33.409Z,102155.91
2023-01-26T07:32:05.813Z,102147.28
2023-01-26T07:34:36.336Z,102143.78
2023-01-26T07:37:06.102Z,102143.78
2023-01-26T07:39:35.903Z,102149.13
2023-01-26T07:42:05.613Z,102152.81
2023-01-26T07:44:35.420Z,102154.50
2023-01-26T07:47:08.004Z,102149.13
2023-01-26T07:49:37.772Z,102147.63
2023-01-26T07:52:08.839Z,102141.22
2023-01-26T07:54:38.575Z,102142.88
2023-01-26T07:57:09.713Z,102149.06
2023-01-26T07:59:39.558Z,102151.75
2023-01-26T08:02:12.554Z,102148.44
2023-01-26T08:04:42.265Z,102153.22
2023-01-26T08:07:11.959Z,102158.34
2023-01-26T08:09:41.773Z,102148.69
2023-01-26T08:12:11.629Z,102163.09
2023-01-26T08:14:46.999Z,102157.75
2023-01-26T08:17:20.120Z,102163.09
2023-01-26T08:19:50.133Z,102163.09
2023-01-26T08:22:19.867Z,102164.28
2023-01-26T08:24:49.672Z,102161.78
2023-01-26T08:27:19.457Z,102163.41
2023-01-26T08:29:49.424Z,102164.03
2023-01-26T08:32:21.806Z,102167.28
2023-01-26T08:34:51.557Z,102161.94
2023-01-26T08:37:21.474Z,102157.16
2023-01-26T08:39:51.297Z,102166.25
2023-01-26T08:42:22.698Z,102164.59
2023-01-26T08:44:54.946Z,102169.97
2023-01-26T08:47:27.394Z,102168.34
2023-01-26T08:49:57.109Z,102164.84
2023-01-26T08:52:27.216Z,102177.41
2023-01-26T08:54:58.779Z,102174.94
2023-01-26T08:57:28.532Z,102171.25
2023-01-26T08:59:58.395Z,102167.28
2023-01-26T09:02:30.993Z,102168.91
2023-01-26T09:05:00.819Z,102172.78
2023-01-26T09:07:30.889Z,102172.78
2023-01-26T09:10:00.601Z,102181.84
2023-01-26T09:12:30.751Z,102181.50
2023-01-26T09:15:00.472Z,102185.81
2023-01-26T09:17:32.845Z,102187.19
2023-01-26T09:20:02.647Z,102188.88
2023-01-26T09:22:32.617Z,102183.50
2023-01-26T09:25:02.357Z,102180.59
2023-01-26T09:27:32.167Z,102182.22
2023-01-26T09:30:02.257Z,102183.88
2023-01-26T09:32:34.614Z,102184.91
2023-01-26T09:35:04.458Z,102185.16
2023-01-26T09:37:35.022Z,102182.22
2023-01-26T09:40:04.740Z,102189.63
2023-01-26T09:43:01.815Z,102188.34
2023-01-26T09:45:38.577Z,102190.34
2023-01-26T09:48:37.069Z,102187.88
2023-01-26T09:51:13.535Z,102190.72
2023-01-26T09:53:49.549Z,102196.88
2023-01-26T09:56:21.763Z,102187.81
2023-01-26T09:58:58.055Z,102183.25
2023-01-26T10:01:34.717Z,102186.56
2023-01-26T10:04:13.523Z,102185.28
2023-01-26T10:06:44.957Z,102181.56
2023-01-26T10:09:20.302Z,102185.88
2023-01-26T10:11:54.361Z,102184.81
2023-01-26T10:14:34.258Z,102186.69
2023-01-26T10:17:06.219Z,102178.44
2023-01-26T10:19:42.751Z,102180.66
2023-01-26T10:22:18.504Z,102169.47
2023-01-26T10:24:53.288Z,102162.88
2023-01-26T10:27:23.399Z,102165.31
2023-01-26T10:29:53.446Z,102164.28
2023-01-26T10:32:23.581Z,102162.63
2023-01-26T10:34:56.310Z,102164.28
2023-01-26T10:37:29.404Z,102163.22
2023-01-26T10:40:04.624Z,102159.16
2023-01-26T10:42:36.049Z,102154.59
2023-01-26T10:45:09.374Z,102155.41
2023-01-26T10:47:39.175Z,102157.88
2023-01-26T10:50:27.909Z,102154.13
2023-01-26T10:53:02.330Z,102153.22
2023-01-26T10:55:33.312Z,102157.09
2023-01-26T10:58:04.336Z,102157.69
2023-01-26T11:00:36.739Z,102153.97
2023-01-26T11:03:18.916Z,102152.34
2023-01-26T11:06:10.041Z,102152.78
2023-01-26T11:08:42.067Z,102142.19
2023-01-26T11:11:29.062Z,102143.00
2023-01-26T11:14:14.970Z,102149.22
2023-01-26T11:16:50.917Z,102144.44
2023-01-26T11:19:39.016Z,102147.34
2023-01-26T11:22:14.616Z,102152.47
2023-01-26T11:24:53.250Z,102148.75
2023-01-26T11:27:40.132Z,102147.69
2023-01-26T11:30:39.129Z,102142.47
2023-01-26T11:33:20.754Z,102138.28
2023-01-26T11:35:57.136Z,102142.97
2023-01-26T11:38:40.088Z,102147.03
2023-01-26T11:41:33.111Z,102149.50
2023-01-26T11:44:38.257Z,102141.69
2023-01-26T11:47:19.523Z,102148.22
2023-01-26T11:50:12.985Z,102142.88
2023-01-26T11:52:52.385Z,102129.22
2023-01-26T11:55:34.048Z,102119.31
2023-01-26T11:58:24.548Z,102118.88
2023-01-26T12:00:58.511Z,102118.97
2023-01-26T12:03:33.913Z,102124.47
2023-01-26T12:06:08.488Z,102120.50
2023-01-26T12:08:43.912Z,102114.44
2023-01-26T12:11:25.605Z,102115.63
2023-01-26T12:14:08.367Z,102115.97
2023-01-26T12:16:53.292Z,102115.97
2023-01-26T12:19:37.409Z,102100.69
2023-01-26T12:22:13.655Z,102094.50
2023-01-26T12:27:47.154Z,102090.88
2023-01-26T12:30:30.328Z,102081.81
2023-01-26T12:33:00.398Z,102077.59
2023-01-26T12:35:43.570Z,102080.06
2023-01-26T12:38:21.561Z,102079.22
2023-01-26T12:41:12.153Z,102073.88
2023-01-26T12:43:56.110Z,102078.31
2023-01-26T12:46:30.719Z,102074.94
2023-01-26T12:49:12.463Z,102078.44
2023-01-26T12:51:48.422Z,102066.78
2023-01-26T12:54:23.711Z,102080.75
2023-01-26T12:56:57.457Z,102079.38
2023-01-26T12:59:46.418Z,102076.31
2023-01-26T13:02:31.265Z,102067.13
2023-01-26T13:05:02.951Z,102067.69
2023-01-26T13:07:35.887Z,102063.38
2023-01-26T13:10:25.952Z,102065.47
2023-01-26T13:13:00.936Z,102065.00
2023-01-26T13:15:37.083Z,102064.53
2023-01-26T13:18:09.143Z,102058.13
2023-01-26T13:20:50.390Z,102059.66
2023-01-26T13:23:52.905Z,102056.41
2023-01-26T13:26:47.530Z,102054.97
2023-01-26T13:29:37.003Z,102047.75
2023-01-26T13:32:36.505Z,102051.72
2023-01-26T13:35:15.894Z,102049.38
2023-01-26T13:37:52.734Z,102050.53
2023-01-26T13:40:25.799Z,102059.78
2023-01-26T13:43:01.066Z,102047.50
2023-01-26T13:45:36.789Z,102042.72
2023-01-26T13:48:12.949Z,102046.56
2023-01-26T13:50:46.221Z,102041.78
2023-01-26T13:53:37.645Z,102042.81
2023-01-26T13:56:09.660Z,102039.78
2023-01-26T13:58:39.347Z,102046.78
2023-01-26T14:01:14.627Z,102042.00
2023-01-26T14:03:44.441Z,102044.69
2023-01-26T14:06:19.694Z,102037.22
2023-01-26T14:08:55.447Z,102045.38
2023-01-26T14:11:27.887Z,102036.84
2023-01-26T14:14:01.933Z,102035.53
2023-01-26T14:16:37.382Z,102034.84
2023-01-26T14:19:09.600Z,102029.47
2023-01-26T14:21:52.850Z,102041.84
2023-01-26T14:24:28.079Z,102042.50
2023-01-26T14:27:09.002Z,102043.13
2023-01-26T14:29:42.179Z,102047.88
2023-01-26T14:32:18.816Z,102039.38
2023-01-26T14:34:56.225Z,102036.19
2023-01-26T14:37:29.942Z,102048.09
2023-01-26T14:40:25.241Z,102039.81
2023-01-26T14:42:57.133Z,102048.78
2023-01-26T14:45:33.188Z,102046.66
2023-01-26T14:48:08.745Z,102053.66
2023-01-26T14:50:40.091Z,102057.53
2023-01-26T14:53:22.788Z,102054.34
2023-01-26T14:55:54.783Z,102057.13
2023-01-26T14:58:29.755Z,102060.38
2023-01-26T15:01:01.260Z,102059.09
2023-01-26T15:03:36.493Z,102048.69
2023-01-26T15:06:21.087Z,102039.25
2023-01-26T15:09:03.692Z,102052.44
2023-01-26T15:11:52.094Z,102045.28
2023-01-26T15:14:36.682Z,102057.91
2023-01-26T15:17:07.428Z,102049.91
2023-01-26T15:19:44.243Z,102045.72
2023-01-26T15:22:24.681Z,102039.28
2023-01-26T15:25:22.534Z,102047.59
2023-01-26T15:27:55.190Z,102045.31
2023-01-26T15:30:29.384Z,102045.63
2023-01-26T15:32:59.648Z,102033.59
2023-01-26T15:35:32.923Z,102025.63
2023-01-26T15:38:05.197Z,102028.88
2023-01-26T15:40:37.838Z,102028.38
2023-01-26T15:43:15.229Z,102032.47
2023-01-26T15:45:52.968Z,102035.72
2023-01-26T15:48:24.243Z,102044.09
2023-01-26T15:50:54.158Z,102047.94
2023-01-26T15:53:25.198Z,102047.22
2023-01-26T15:55:58.706Z,102037.03
2023-01-26T15:58:29.118Z,102029.88
2023-01-26T16:00:59.341Z,102034.09
2023-01-26T16:03:29.331Z,102037.84
2023-01-26T16:05:59.541Z,102035.97
2023-01-26T16:08:29.632Z,102037.34
2023-01-26T16:11:02.205Z,102037.75
2023-01-26T16:13:34.030Z,102037.69
2023-01-26T16:16:04.200Z,102036.03
2023-01-26T16:18:34.061Z,102043.06
2023-01-26T16:21:03.969Z,102045.25
2023-01-26T16:23:33.785Z,102049.09
2023-01-26T16:26:06.357Z,102047.78
2023-01-26T16:28:36.170Z,102043.22
2023-01-26T16:31:09.087Z,102044.38
2023-01-26T16:33:38.986Z,102046.81
2023-01-26T16:36:09.398Z,102034.91
2023-01-26T16:38:39.303Z,102039.47
2023-01-26T16:41:17.159Z,102032.47
2023-01-26T16:43:47.082Z,102042.50
2023-01-26T16:46:16.919Z,102040.13
2023-01-26T16:48:47.431Z,102032.94
2023-01-26T16:51:23.091Z,102035.41
2023-01-26T16:53:53.617Z,102042.41
2023-01-26T16:56:28.815Z,102037.03
2023-01-26T16:58:58.559Z,102046.72
2023-01-26T17:01:32.131Z,102044.03
2023-01-26T17:04:02.435Z,102041.28
2023-01-26T17:06:33.318Z,102042.72
2023-01-26T17:09:03.212Z,102041.09
2023-01-26T17:11:36.005Z,102035.47
2023-01-26T17:14:06.316Z,102042.81
2023-01-26T17:16:37.214Z,102031.00
2023-01-26T17:19:09.056Z,102027.75
2023-01-26T17:21:39.481Z,102036.88
2023-01-26T17:24:10.990Z,102053.00
2023-01-26T17:26:43.435Z,102043.88
2023-01-26T17:29:14.311Z,102041.75
2023-01-26T17:31:44.608Z,102043.38
2023-01-26T17:34:14.672Z,102034.50
2023-01-26T17:36:46.004Z,102034.28
2023-01-26T17:39:18.456Z,102046.66
2023-01-26T17:41:50.941Z,102041.28
2023-01-26T17:44:20.938Z,102047.78
2023-01-26T17:46:50.825Z,102046.50
2023-01-26T17:49:21.572Z,102042.75
2023-01-26T17:51:51.389Z,102046.81
2023-01-26T17:54:21.460Z,102045.50
2023-01-26T17:56:55.009Z,102044.38
2023-01-26T17:59:25.406Z,102044.03
2023-01-26T18:01:55.356Z,102042.41
2023-01-26T18:04:25.176Z,102039.16
2023-01-26T18:06:55.409Z,102039.97
2023-01-26T18:09:25.504Z,102037.84
2023-01-26T18:11:58.032Z,102038.66
2023-01-26T18:14:28.128Z,102039.22
2023-01-26T18:16:58.062Z,102037.34
2023-01-26T18:19:28.080Z,102040.59
2023-01-26T18:21:57.968Z,102033.91
2023-01-26T18:24:27.979Z,102047.16
2023-01-26T18:27:02.556Z,102036.13
2023-01-26T18:29:32.410Z,102042.88
2023-01-26T18:32:02.216Z,102045.09
2023-01-26T18:34:32.241Z,102049.97
2023-01-26T18:37:02.083Z,102044.09
2023-01-26T18:39:31.907Z,102047.13
2023-01-26T18:42:04.449Z,102039.59
2023-01-26T18:44:34.587Z,102039.13
2023-01-26T18:47:04.910Z,102044.00
2023-01-26T18:49:34.671Z,102041.84
2023-01-26T18:52:05.365Z,102039.75
2023-01-26T18:54:35.179Z,102043.81
2023-01-26T18:57:08.057Z,102042.50
2023-01-26T18:59:37.942Z,102042.50
2023-01-26T19:02:08.020Z,102039.81
2023-01-26T19:04:40.621Z,102044.63
2023-01-26T19:07:10.757Z,102036.00
2023-01-26T19:09:41.160Z,102035.19
2023-01-26T19:12:13.728Z,102034.38
2023-01-26T19:14:43.825Z,102032.25
2023-01-26T19:17:14.137Z,102036.56
2023-01-26T19:19:43.981Z,102038.19
2023-01-26T19:22:13.728Z,102036.56
2023-01-26T19:24:44.007Z,102033.59
2023-01-26T19:27:16.995Z,102036.56
2023-01-26T19:29:46.817Z,102036.03
2023-01-26T19:32:16.514Z,102036.03
2023-01-26T19:34:46.827Z,102031.25
2023-01-26T19:37:16.802Z,102027.50
2023-01-26T19:39:46.990Z,102031.81
2023-01-26T19:42:19.387Z,102040.69
2023-01-26T19:44:49.205Z,102041.50
2023-01-26T19:47:18.961Z,102046.09
2023-01-26T19:49:48.744Z,102042.84
2023-01-26T19:52:18.629Z,102038.50
2023-01-26T19:54:48.467Z,102046.09
2023-01-26T19:57:21.068Z,102050.34
2023-01-26T19:59:50.838Z,102045.00
2023-01-26T20:02:20.645Z,102046.91
2023-01-26T20:04:50.787Z,102041.03
2023-01-26T20:07:20.668Z,102042.66
2023-01-26T20:09:51.055Z,102039.72
2023-01-26T20:12:23.747Z,102036.75
2023-01-26T20:14:53.713Z,102042.13
2023-01-26T20:17:23.548Z,102035.69
2023-01-26T20:19:53.590Z,102040.25
2023-01-26T20:22:23.681Z,102040.00
2023-01-26T20:24:54.568Z,102034.13
2023-01-26T20:27:28.241Z,102039.53
2023-01-26T20:29:58.207Z,102037.91
2023-01-26T20:32:28.351Z,102043.75
2023-01-26T20:34:58.195Z,102034.13
2023-01-26T20:37:28.727Z,102032.00
2023-01-26T20:39:58.842Z,102038.19
2023-01-26T20:42:31.490Z,102041.72
2023-01-26T20:45:01.864Z,102041.97
2023-01-26T20:47:33.976Z,102039.00
2023-01-26T20:50:03.966Z,102039.00
2023-01-26T20:52:40.468Z,102046.03
2023-01-26T20:55:13.418Z,102038.19
2023-01-26T20:57:47.161Z,102044.41
2023-01-26T21:00:17.961Z,102033.63
2023-01-26T21:02:48.078Z,102043.34
2023-01-26T21:05:19.577Z,102042.28
2023-01-26T21:07:50.141Z,102039.34
2023-01-26T21:10:20.221Z,102032.63
2023-01-26T21:12:52.809Z,102038.03
2023-01-26T21:15:22.946Z,102039.63
2023-01-26T21:17:55.572Z,102032.63
2023-01-26T21:23:00.564Z,102040.97
2023-01-26T21:25:30.261Z,102034.50
2023-01-26T21:28:02.707Z,102036.41
2023-01-26T21:30:32.518Z,102033.97
2023-01-26T21:33:02.351Z,102031.00
2023-01-26T21:35:32.244Z,102037.19
2023-01-26T21:38:01.951Z,102032.34
2023-01-26T21:40:31.770Z,102038.03
2023-01-26T21:43:04.191Z,102037.47
2023-01-26T21:45:46.340Z,102031.00
2023-01-26T21:48:32.080Z,102030.19
2023-01-26T21:51:14.493Z,102032.63
2023-01-26T21:53:44.596Z,102038.03
2023-01-26T21:56:16.280Z,102032.63
2023-01-26T21:59:02.775Z,102027.25
2023-01-26T22:01:33.781Z,102034.22
2023-01-26T22:04:06.738Z,102036.91
2023-01-26T22:06:37.384Z,102034.44
2023-01-26T22:09:08.048Z,102035.25
2023-01-26T22:11:38.324Z,102037.72
2023-01-26T22:14:11.550Z,102033.63
2023-01-26T22:16:41.878Z,102038.78
2023-01-26T22:19:12.770Z,102033.06
2023-01-26T22:21:43.050Z,102033.06
2023-01-26T22:24:15.368Z,102032.50
2023-01-26T22:26:45.391Z,102039.38
2023-01-26T22:29:17.990Z,102031.88
2023-01-26T22:31:47.830Z,102037.53
2023-01-26T22:34:17.571Z,102026.16
2023-01-26T22:36:47.651Z,102033.75
2023-01-26T22:39:17.352Z,102038.75
2023-01-26T22:41:47.248Z,102042.03
2023-01-26T22:44:19.978Z,102040.41
2023-01-26T22:46:49.708Z,102036.31
2023-01-26T22:49:19.579Z,102040.06
2023-01-26T22:51:49.320Z,102034.38
2023-01-26T22:54:19.257Z,102039.75
2023-01-26T22:56:49.168Z,102038.69
2023-01-26T22:59:21.840Z,102037.28
2023-01-26T23:01:52.024Z,102042.69
2023-01-26T23:04:21.835Z,102041.06
2023-01-26T23:06:51.766Z,102042.38
2023-01-26T23:09:21.625Z,102047.19
2023-01-26T23:11:51.397Z,102045.53
2023-01-26T23:14:23.874Z,102049.63
2023-01-26T23:16:53.581Z,102051.25
2023-01-26T23:19:23.501Z,102048.88
2023-01-26T23:21:53.200Z,102048.31
2023-01-26T23:24:23.175Z,102053.13
2023-01-26T23:26:52.900Z,102047.75
2023-01-26T23:29:25.315Z,102053.63
2023-01-26T23:31:55.105Z,102049.06
2023-01-26T23:34:25.272Z,102049.06
2023-01-26T23:36:55.140Z,102048.22
2023-01-26T23:39:24.959Z,102052.00
2023-01-26T23:41:54.771Z,102048.47
2023-01-26T23:44:27.329Z,102054.63
2023-01-26T23:46:57.348Z,102045.78
2023-01-26T23:49:27.164Z,102051.69
2023-01-26T23:51:57.038Z,102051.34
2023-01-26T23:54:26.921Z,102047.84
2023-01-26T23:56:56.925Z,102051.34
2023-01-26T23:59:29.460Z,102048.44
